Emeop — FAD2721 — position and weather

sailwx.info

Track history (hours):
 
Tides and Currents Weather Stations Pressure Air Temp Water Temp Dewpoint Dewpoint Depression Visibility Wind Speed Wind Dir Waves Ship Positions

Emeop

Last reported at 2017-Aug-20 13:13 UTC. Time now 2017-Sep-24 00:01 UTC.
Position N 46°09' W 001°10'.
Warning: this ship's position is 34 days out of date.

Length 5 m.

Type: Sailing vessel. MMSI: 227376840.

Date/timePositionNaut miles runAvg speedWind from/ knotsBaromVisibWave heightAir tempDewpointWater temp
2017-Aug-20 13:13N 46°09' W 001°10'0 0.0
2017-Aug-20 12:58N 46°09' W 001°10'0 0.2
2017-Aug-20 12:28N 46°09' W 001°10'1 1.7
2017-Aug-20 12:00N 46°09' W 001°11'3 5.1
2017-Aug-20 11:31N 46°09' W 001°15'2 4.6
2017-Aug-20 11:00N 46°12' W 001°16'16 4.3
2017-Aug-20 07:11N 46°22' W 001°35'1 4.8
2017-Aug-20 06:58N 46°22' W 001°36'2 4.7
2017-Aug-20 06:30N 46°23' W 001°39'2 4.5
2017-Aug-20 06:00N 46°24' W 001°42'2 3.1
2017-Aug-20 05:30N 46°25' W 001°44'1 2.6
2017-Aug-20 05:00N 46°25' W 001°45'1 2.7
2017-Aug-20 04:30N 46°26' W 001°47'1 2.8
2017-Aug-20 04:00N 46°27' W 001°49'1 2.9
2017-Aug-20 03:30N 46°28' W 001°50'1 2.8
2017-Aug-20 03:00N 46°29' W 001°52'2 3.2
2017-Aug-20 02:30N 46°29' W 001°54'1 2.9
2017-Aug-20 02:00N 46°30' W 001°55'2 3.1
2017-Aug-20 01:29N 46°31' W 001°57'1 3.0
2017-Aug-20 01:00N 46°32' W 001°59'2 3.7
2017-Aug-20 00:29N 46°34' W 002°01'62 4.6
2017-Aug-19 10:56N 47°22' W 002°59'2 4.6
2017-Aug-19 10:30N 47°23' W 003°01'2 3.6
2017-Aug-19 10:00N 47°25' W 003°02'2 4.7
2017-Aug-19 09:30N 47°27' W 003°02'2 3.2
2017-Aug-19 09:00N 47°29' W 003°02'2 3.6
2017-Aug-19 08:30N 47°29' W 003°05'2 3.3
2017-Aug-19 08:00N 47°30' W 003°07'0 0.0
2017-Aug-18 16:32N 47°31' W 003°07'0 0.1
2017-Aug-18 16:29N 47°31' W 003°07'1 1.2
2017-Aug-18 16:00N 47°31' W 003°06'2 3.7
2017-Aug-18 15:30N 47°32' W 003°04'1 1.3
2017-Aug-18 15:00N 47°32' W 003°05'2 0.7
2017-Aug-18 12:05N 47°31' W 003°07'0 0.0
2017-Aug-18 11:59N 47°31' W 003°07'0 0.1
2017-Aug-18 11:29N 47°30' W 003°07'0 0.0
2017-Aug-16 16:50N 47°31' W 003°07'1 1.7
2017-Aug-16 16:30N 47°31' W 003°06'3 6.0
2017-Aug-16 16:00N 47°31' W 003°02'3 5.9
2017-Aug-16 15:30N 47°31' W 002°57'2 3.2
2017-Aug-16 15:00N 47°31' W 002°60'2 3.3
2017-Aug-16 14:30N 47°30' W 003°02'2 3.1
2017-Aug-16 14:00N 47°30' W 003°04'2 3.8
2017-Aug-16 13:30N 47°31' W 003°07'0 0.0
2017-Aug-15 17:34N 47°30' W 003°07'0 0.0
2017-Aug-15 17:28N 47°30' W 003°07'0 0.9
2017-Aug-15 17:00N 47°30' W 003°06'3 5.9
2017-Aug-15 16:30N 47°28' W 003°04'3 5.5
2017-Aug-15 16:00N 47°25' W 003°03'4 6.5
2017-Aug-15 15:27N 47°22' W 003°03'3 5.5
2017-Aug-15 14:51N 47°18' W 003°03'9 3.2
2017-Aug-15 12:09N 47°19' W 003°15'1 6.2
2017-Aug-15 12:00N 47°20' W 003°16'2 5.0
2017-Aug-15 11:30N 47°22' W 003°17'2 4.5
2017-Aug-15 11:00N 47°24' W 003°18'2 3.7
2017-Aug-15 10:30N 47°26' W 003°19'3 5.4
2017-Aug-15 10:00N 47°29' W 003°20'3 6.8
2017-Aug-15 09:30N 47°32' W 003°21'4 7.1
2017-Aug-15 09:00N 47°35' W 003°23'3 5.0
2017-Aug-15 08:30N 47°38' W 003°24'2 3.6
2017-Aug-15 08:00N 47°39' W 003°26'1 0.0
2017-Aug-14 14:55N 47°39' W 003°27'0 0.2
2017-Aug-14 14:30N 47°39' W 003°27'2 4.6
2017-Aug-14 14:00N 47°38' W 003°23'3 5.6
2017-Aug-14 13:30N 47°36' W 003°20'3 5.9
2017-Aug-14 13:00N 47°34' W 003°17'1 2.7
2017-Aug-14 12:28N 47°33' W 003°15'1 1.6
2017-Aug-14 12:00N 47°33' W 003°14'1 2.2
2017-Aug-14 11:30N 47°33' W 003°13'1 2.8
2017-Aug-14 11:00N 47°31' W 003°12'2 4.0
2017-Aug-14 10:30N 47°29' W 003°11'2 4.7
2017-Aug-14 10:00N 47°28' W 003°08'2 3.7
2017-Aug-14 09:30N 47°27' W 003°06'2 4.2
2017-Aug-14 09:00N 47°28' W 003°03'2 4.7
2017-Aug-14 08:30N 47°30' W 003°06'1 2.3
2017-Aug-14 08:00N 47°30' W 003°07'0 0.0
2017-Aug-12 17:31N 47°30' W 003°07'0 0.0
2017-Aug-12 17:28N 47°30' W 003°07'1 2.5
2017-Aug-12 17:00N 47°30' W 003°05'2 3.3
2017-Aug-12 16:30N 47°31' W 003°04'2 4.5
2017-Aug-12 16:00N 47°29' W 003°04'2 4.8
2017-Aug-12 15:30N 47°27' W 003°02'2 3.4
2017-Aug-12 15:00N 47°28' W 003°02'3 5.6
2017-Aug-12 14:30N 47°30' W 003°06'1 1.9
2017-Aug-12 13:59N 47°31' W 003°07'0 0.0
2017-Aug-11 17:29N 47°30' W 003°07'0 0.2
2017-Aug-11 17:00N 47°30' W 003°07'2 3.5
2017-Aug-11 16:29N 47°30' W 003°04'3 5.4
2017-Aug-11 16:00N 47°28' W 003°02'3 6.0
2017-Aug-11 15:30N 47°25' W 003°04'2 3.4
2017-Aug-11 15:00N 47°27' W 003°02'5 5.4
2017-Aug-11 14:00N 47°32' W 003°05'2 4.1
2017-Aug-11 13:30N 47°30' W 003°07'  
Track history (hours):
 
Tides and Currents Weather Stations Pressure Air Temp Water Temp Dewpoint Dewpoint Depression Visibility Wind Speed Wind Dir Waves Ship Positions

Emeop

Last reported at 2017-Aug-20 13:13 UTC. Time now 2017-Sep-24 00:01 UTC.
Position N 46°09' W 001°10'.
Warning: this ship's position is 34 days out of date.

Length 5 m.

Type: Sailing vessel. MMSI: 227376840.

Date/timePositionNaut miles runAvg speedWind from/ knotsBaromVisibWave heightAir tempDewpointWater temp
2017-Aug-20 13:13N 46°09' W 001°10'0 0.0
2017-Aug-20 12:58N 46°09' W 001°10'0 0.2
2017-Aug-20 12:28N 46°09' W 001°10'1 1.7
2017-Aug-20 12:00N 46°09' W 001°11'3 5.1
2017-Aug-20 11:31N 46°09' W 001°15'2 4.6
2017-Aug-20 11:00N 46°12' W 001°16'16 4.3
2017-Aug-20 07:11N 46°22' W 001°35'1 4.8
2017-Aug-20 06:58N 46°22' W 001°36'2 4.7
2017-Aug-20 06:30N 46°23' W 001°39'2 4.5
2017-Aug-20 06:00N 46°24' W 001°42'2 3.1
2017-Aug-20 05:30N 46°25' W 001°44'1 2.6
2017-Aug-20 05:00N 46°25' W 001°45'1 2.7
2017-Aug-20 04:30N 46°26' W 001°47'1 2.8
2017-Aug-20 04:00N 46°27' W 001°49'1 2.9
2017-Aug-20 03:30N 46°28' W 001°50'1 2.8
2017-Aug-20 03:00N 46°29' W 001°52'2 3.2
2017-Aug-20 02:30N 46°29' W 001°54'1 2.9
2017-Aug-20 02:00N 46°30' W 001°55'2 3.1
2017-Aug-20 01:29N 46°31' W 001°57'1 3.0
2017-Aug-20 01:00N 46°32' W 001°59'2 3.7
2017-Aug-20 00:29N 46°34' W 002°01'62 4.6
2017-Aug-19 10:56N 47°22' W 002°59'2 4.6
2017-Aug-19 10:30N 47°23' W 003°01'2 3.6
2017-Aug-19 10:00N 47°25' W 003°02'2 4.7
2017-Aug-19 09:30N 47°27' W 003°02'2 3.2
2017-Aug-19 09:00N 47°29' W 003°02'2 3.6
2017-Aug-19 08:30N 47°29' W 003°05'2 3.3
2017-Aug-19 08:00N 47°30' W 003°07'0 0.0
2017-Aug-18 16:32N 47°31' W 003°07'0 0.1
2017-Aug-18 16:29N 47°31' W 003°07'1 1.2
2017-Aug-18 16:00N 47°31' W 003°06'2 3.7
2017-Aug-18 15:30N 47°32' W 003°04'1 1.3
2017-Aug-18 15:00N 47°32' W 003°05'2 0.7
2017-Aug-18 12:05N 47°31' W 003°07'0 0.0
2017-Aug-18 11:59N 47°31' W 003°07'0 0.1
2017-Aug-18 11:29N 47°30' W 003°07'0 0.0
2017-Aug-16 16:50N 47°31' W 003°07'1 1.7
2017-Aug-16 16:30N 47°31' W 003°06'3 6.0
2017-Aug-16 16:00N 47°31' W 003°02'3 5.9
2017-Aug-16 15:30N 47°31' W 002°57'2 3.2
2017-Aug-16 15:00N 47°31' W 002°60'2 3.3
2017-Aug-16 14:30N 47°30' W 003°02'2 3.1
2017-Aug-16 14:00N 47°30' W 003°04'2 3.8
2017-Aug-16 13:30N 47°31' W 003°07'0 0.0
2017-Aug-15 17:34N 47°30' W 003°07'0 0.0
2017-Aug-15 17:28N 47°30' W 003°07'0 0.9
2017-Aug-15 17:00N 47°30' W 003°06'3 5.9
2017-Aug-15 16:30N 47°28' W 003°04'3 5.5
2017-Aug-15 16:00N 47°25' W 003°03'4 6.5
2017-Aug-15 15:27N 47°22' W 003°03'3 5.5
2017-Aug-15 14:51N 47°18' W 003°03'9 3.2
2017-Aug-15 12:09N 47°19' W 003°15'1 6.2
2017-Aug-15 12:00N 47°20' W 003°16'2 5.0
2017-Aug-15 11:30N 47°22' W 003°17'2 4.5
2017-Aug-15 11:00N 47°24' W 003°18'2 3.7
2017-Aug-15 10:30N 47°26' W 003°19'3 5.4
2017-Aug-15 10:00N 47°29' W 003°20'3 6.8
2017-Aug-15 09:30N 47°32' W 003°21'4 7.1
2017-Aug-15 09:00N 47°35' W 003°23'3 5.0
2017-Aug-15 08:30N 47°38' W 003°24'2 3.6
2017-Aug-15 08:00N 47°39' W 003°26'1 0.0
2017-Aug-14 14:55N 47°39' W 003°27'0 0.2
2017-Aug-14 14:30N 47°39' W 003°27'2 4.6
2017-Aug-14 14:00N 47°38' W 003°23'3 5.6
2017-Aug-14 13:30N 47°36' W 003°20'3 5.9
2017-Aug-14 13:00N 47°34' W 003°17'1 2.7
2017-Aug-14 12:28N 47°33' W 003°15'1 1.6
2017-Aug-14 12:00N 47°33' W 003°14'1 2.2
2017-Aug-14 11:30N 47°33' W 003°13'1 2.8
2017-Aug-14 11:00N 47°31' W 003°12'2 4.0
2017-Aug-14 10:30N 47°29' W 003°11'2 4.7
2017-Aug-14 10:00N 47°28' W 003°08'2 3.7
2017-Aug-14 09:30N 47°27' W 003°06'2 4.2
2017-Aug-14 09:00N 47°28' W 003°03'2 4.7
2017-Aug-14 08:30N 47°30' W 003°06'1 2.3
2017-Aug-14 08:00N 47°30' W 003°07'0 0.0
2017-Aug-12 17:31N 47°30' W 003°07'0 0.0
2017-Aug-12 17:28N 47°30' W 003°07'1 2.5
2017-Aug-12 17:00N 47°30' W 003°05'2 3.3
2017-Aug-12 16:30N 47°31' W 003°04'2 4.5
2017-Aug-12 16:00N 47°29' W 003°04'2 4.8
2017-Aug-12 15:30N 47°27' W 003°02'2 3.4
2017-Aug-12 15:00N 47°28' W 003°02'3 5.6
2017-Aug-12 14:30N 47°30' W 003°06'1 1.9
2017-Aug-12 13:59N 47°31' W 003°07'0 0.0
2017-Aug-11 17:29N 47°30' W 003°07'0 0.2
2017-Aug-11 17:00N 47°30' W 003°07'2 3.5
2017-Aug-11 16:29N 47°30' W 003°04'3 5.4
2017-Aug-11 16:00N 47°28' W 003°02'3 6.0
2017-Aug-11 15:30N 47°25' W 003°04'2 3.4
2017-Aug-11 15:00N 47°27' W 003°02'5 5.4
2017-Aug-11 14:00N 47°32' W 003°05'2 4.1
2017-Aug-11 13:30N 47°30' W 003°07'  

Dump ship's entire track history